Accueil
METAR-TAF:

METAR-TAF

Aéroports :

Aéroport international de Nouakchott-Oumtounsy

Nouakchott, Mauritanie

latitude: 18-18-36N, longitude: 015-58-11W, altitude: 3 m

Observation

Le bulletin a été fait il y a 44 minutes, à 03:00 UTC
Vent 5 kt de ouest/nord-ouest
Température 26°C
Humidité 79%
Pression 1009 hPa
Visibilité: 8000 m
Nuages épars à une hauteur de 1300 ft

METAR: GQNO 110300Z 30005KT 8000 SCT013 26/22 Q1009 NOSIG

Heure: 03:44 (03:44 UTC)

Prévision

Le bulletin a été fait il y a 4 heures et 44 minutes, à 23:00 UTC
Prévision valable du 11 à 00 UTC au 12 à 06 UTC
Vent 10 kt de ouest
Visibilité: 8000 m
Nuages épars à une hauteur de 1000 ft
Temporairement
du 11 à 00 UTC au 11 à 09 UTC
Nuages fragmentés à une hauteur de 1000 ft

TAF: GQNO 102300Z 1100/1206 28010KT 8000 SCT010 TEMPO 1100/1109 BKN010

Observations et prévisions météorologiques de plus de 4000 aéroports (messages METAR et TAF).

Les stations disponibles sont représentées par des disques jaunes et rouges sur la carte.

Passer la souris dessus pour voir le nom de la station.

Cliquer dessus pour voir les observations et prévisions météorologiques.

Pour changer de carte: cliquez sur les boutons verts avec une croix noire pour zoomer, sur le bouton vert avec un tiret pour effectuer un zoom arrière, ou sur les flèches vertes pour les cartes adjacentes.


METAR-TAF: